sensor_id;sensor_type;location;lat;lon;timestamp;pressure;altitude;pressure_sealevel;temperature;humidity
81162;BME280;70638;-33.792;151.032;2023-08-01T00:02:13;102066.81;;;13.93;54.89
81162;BME280;70638;-33.792;151.032;2023-08-01T00:04:43;102067.02;;;14.10;53.66
81162;BME280;70638;-33.792;151.032;2023-08-01T00:07:14;102063.31;;;14.16;54.62
81162;BME280;70638;-33.792;151.032;2023-08-01T00:09:44;102065.67;;;14.16;53.84
81162;BME280;70638;-33.792;151.032;2023-08-01T00:12:15;102063.45;;;14.30;51.51
81162;BME280;70638;-33.792;151.032;2023-08-01T00:14:49;102057.68;;;14.47;51.43
81162;BME280;70638;-33.792;151.032;2023-08-01T00:17:15;102062.08;;;14.50;51.78
81162;BME280;70638;-33.792;151.032;2023-08-01T00:19:46;102057.34;;;14.50;53.08
81162;BME280;70638;-33.792;151.032;2023-08-01T00:22:16;102052.05;;;14.53;50.70
81162;BME280;70638;-33.792;151.032;2023-08-01T00:24:46;102047.14;;;14.59;51.73
81162;BME280;70638;-33.792;151.032;2023-08-01T00:27:16;102045.43;;;14.87;51.78
81162;BME280;70638;-33.792;151.032;2023-08-01T00:29:46;102041.35;;;14.93;50.62
81162;BME280;70638;-33.792;151.032;2023-08-01T00:32:17;102044.48;;;14.93;51.42
81162;BME280;70638;-33.792;151.032;2023-08-01T00:34:47;102041.75;;;15.14;50.12
81162;BME280;70638;-33.792;151.032;2023-08-01T00:37:23;102037.05;;;15.21;51.35
81162;BME280;70638;-33.792;151.032;2023-08-01T00:39:47;102031.83;;;15.19;50.91
81162;BME280;70638;-33.792;151.032;2023-08-01T00:42:18;102031.38;;;15.37;50.39
81162;BME280;70638;-33.792;151.032;2023-08-01T00:44:50;102032.70;;;15.47;51.02
81162;BME280;70638;-33.792;151.032;2023-08-01T00:47:19;102032.05;;;15.54;49.02
81162;BME280;70638;-33.792;151.032;2023-08-01T00:49:49;102025.47;;;15.49;50.92
81162;BME280;70638;-33.792;151.032;2023-08-01T00:52:20;102024.06;;;15.43;50.43
81162;BME280;70638;-33.792;151.032;2023-08-01T00:54:50;102022.91;;;15.70;49.28
81162;BME280;70638;-33.792;151.032;2023-08-01T00:57:21;102026.89;;;15.85;48.00
81162;BME280;70638;-33.792;151.032;2023-08-01T00:59:51;102025.80;;;15.78;47.95
81162;BME280;70638;-33.792;151.032;2023-08-01T01:02:22;102026.72;;;15.85;47.93
81162;BME280;70638;-33.792;151.032;2023-08-01T01:04:52;102023.03;;;15.96;47.56
81162;BME280;70638;-33.792;151.032;2023-08-01T01:07:22;102014.73;;;15.94;48.30
81162;BME280;70638;-33.792;151.032;2023-08-01T01:09:52;102015.89;;;15.89;49.36
81162;BME280;70638;-33.792;151.032;2023-08-01T01:12:22;102012.99;;;16.11;48.72
81162;BME280;70638;-33.792;151.032;2023-08-01T01:14:53;102002.27;;;16.40;46.63
81162;BME280;70638;-33.792;151.032;2023-08-01T01:17:23;101997.61;;;16.36;47.17
81162;BME280;70638;-33.792;151.032;2023-08-01T01:20:00;101996.77;;;16.70;45.93
81162;BME280;70638;-33.792;151.032;2023-08-01T01:22:24;101997.98;;;16.71;45.77
81162;BME280;70638;-33.792;151.032;2023-08-01T01:24:55;101995.68;;;16.78;47.01
81162;BME280;70638;-33.792;151.032;2023-08-01T01:27:25;101999.56;;;16.81;45.21
81162;BME280;70638;-33.792;151.032;2023-08-01T01:29:56;101994.70;;;16.79;43.92
81162;BME280;70638;-33.792;151.032;2023-08-01T01:32:27;101994.38;;;16.94;44.79
81162;BME280;70638;-33.792;151.032;2023-08-01T01:34:57;102001.68;;;17.08;43.12
81162;BME280;70638;-33.792;151.032;2023-08-01T01:37:27;102001.23;;;17.02;42.92
81162;BME280;70638;-33.792;151.032;2023-08-01T01:40:03;101997.13;;;17.09;42.82
81162;BME280;70638;-33.792;151.032;2023-08-01T01:42:28;101993.92;;;16.97;42.75
81162;BME280;70638;-33.792;151.032;2023-08-01T01:44:58;101991.44;;;17.32;42.28
81162;BME280;70638;-33.792;151.032;2023-08-01T01:47:28;101988.62;;;17.24;42.20
81162;BME280;70638;-33.792;151.032;2023-08-01T01:49:59;101989.54;;;17.16;43.04
81162;BME280;70638;-33.792;151.032;2023-08-01T01:52:29;101988.91;;;17.44;43.05
81162;BME280;70638;-33.792;151.032;2023-08-01T01:54:59;101984.78;;;17.42;42.78
81162;BME280;70638;-33.792;151.032;2023-08-01T01:57:29;101986.48;;;17.37;42.01
81162;BME280;70638;-33.792;151.032;2023-08-01T02:00:00;101982.19;;;17.44;42.63
81162;BME280;70638;-33.792;151.032;2023-08-01T02:02:30;101979.47;;;17.51;41.97
81162;BME280;70638;-33.792;151.032;2023-08-01T02:05:00;101971.42;;;17.41;42.02
81162;BME280;70638;-33.792;151.032;2023-08-01T02:07:30;101965.55;;;17.36;42.45
81162;BME280;70638;-33.792;151.032;2023-08-01T02:10:00;101956.62;;;17.21;43.15
81162;BME280;70638;-33.792;151.032;2023-08-01T02:12:33;101953.41;;;17.52;42.53
81162;BME280;70638;-33.792;151.032;2023-08-01T02:15:01;101949.28;;;17.61;41.69
81162;BME280;70638;-33.792;151.032;2023-08-01T02:17:31;101941.86;;;17.77;41.13
81162;BME280;70638;-33.792;151.032;2023-08-01T02:20:02;101943.34;;;17.83;41.00
81162;BME280;70638;-33.792;151.032;2023-08-01T02:22:39;101946.52;;;17.58;41.10
81162;BME280;70638;-33.792;151.032;2023-08-01T02:25:03;101940.34;;;17.72;41.29
81162;BME280;70638;-33.792;151.032;2023-08-01T02:27:33;101941.91;;;17.56;42.58
81162;BME280;70638;-33.792;151.032;2023-08-01T02:30:04;101936.95;;;17.45;42.21
81162;BME280;70638;-33.792;151.032;2023-08-01T02:32:33;101932.23;;;17.48;42.76
81162;BME280;70638;-33.792;151.032;2023-08-01T02:35:04;101925.12;;;18.01;41.09
81162;BME280;70638;-33.792;151.032;2023-08-01T02:37:34;101918.98;;;18.05;40.16
81162;BME280;70638;-33.792;151.032;2023-08-01T02:40:09;101919.45;;;18.21;40.63
81162;BME280;70638;-33.792;151.032;2023-08-01T02:42:35;101918.42;;;18.42;40.75
81162;BME280;70638;-33.792;151.032;2023-08-01T02:45:10;101916.14;;;18.17;39.99
81162;BME280;70638;-33.792;151.032;2023-08-01T02:47:35;101911.77;;;18.01;40.35
81162;BME280;70638;-33.792;151.032;2023-08-01T02:50:06;101911.78;;;18.23;40.14
81162;BME280;70638;-33.792;151.032;2023-08-01T02:52:37;101917.47;;;18.56;39.59
81162;BME280;70638;-33.792;151.032;2023-08-01T02:55:07;101912.48;;;18.37;40.66
81162;BME280;70638;-33.792;151.032;2023-08-01T02:57:38;101904.16;;;18.45;39.77
81162;BME280;70638;-33.792;151.032;2023-08-01T03:00:10;101896.83;;;18.45;39.44
81162;BME280;70638;-33.792;151.032;2023-08-01T03:02:38;101901.55;;;18.36;40.12
81162;BME280;70638;-33.792;151.032;2023-08-01T03:05:13;101904.83;;;18.69;38.44
81162;BME280;70638;-33.792;151.032;2023-08-01T03:07:39;101901.97;;;18.48;38.04
81162;BME280;70638;-33.792;151.032;2023-08-01T03:10:10;101902.70;;;18.54;37.92
81162;BME280;70638;-33.792;151.032;2023-08-01T03:12:40;101899.75;;;18.73;38.70
81162;BME280;70638;-33.792;151.032;2023-08-01T03:15:11;101896.26;;;18.64;37.38
81162;BME280;70638;-33.792;151.032;2023-08-01T03:17:40;101894.23;;;18.68;37.13
81162;BME280;70638;-33.792;151.032;2023-08-01T03:20:13;101895.14;;;18.78;36.97
81162;BME280;70638;-33.792;151.032;2023-08-01T03:22:41;101893.84;;;18.76;37.57
81162;BME280;70638;-33.792;151.032;2023-08-01T03:25:11;101898.00;;;18.90;35.18
81162;BME280;70638;-33.792;151.032;2023-08-01T03:27:47;101896.06;;;18.94;35.19
81162;BME280;70638;-33.792;151.032;2023-08-01T03:30:12;101896.11;;;19.00;35.82
81162;BME280;70638;-33.792;151.032;2023-08-01T03:32:43;101892.25;;;18.97;34.75
81162;BME280;70638;-33.792;151.032;2023-08-01T03:35:13;101897.34;;;18.93;35.16
81162;BME280;70638;-33.792;151.032;2023-08-01T03:37:43;101893.12;;;18.87;35.99
81162;BME280;70638;-33.792;151.032;2023-08-01T03:40:13;101894.86;;;19.01;35.50
81162;BME280;70638;-33.792;151.032;2023-08-01T03:42:45;101901.39;;;19.18;34.92
81162;BME280;70638;-33.792;151.032;2023-08-01T03:45:14;101900.77;;;18.86;35.31
81162;BME280;70638;-33.792;151.032;2023-08-01T03:47:50;101898.36;;;18.95;34.21
81162;BME280;70638;-33.792;151.032;2023-08-01T03:50:16;101898.16;;;19.00;33.79
81162;BME280;70638;-33.792;151.032;2023-08-01T03:52:47;101897.08;;;19.01;33.79
81162;BME280;70638;-33.792;151.032;2023-08-01T03:55:18;101894.99;;;19.18;34.03
81162;BME280;70638;-33.792;151.032;2023-08-01T03:57:48;101894.47;;;19.40;34.37
81162;BME280;70638;-33.792;151.032;2023-08-01T04:00:21;101895.84;;;19.19;33.84
81162;BME280;70638;-33.792;151.032;2023-08-01T04:02:49;101899.05;;;18.94;35.24
81162;BME280;70638;-33.792;151.032;2023-08-01T04:05:20;101902.72;;;19.04;33.75
81162;BME280;70638;-33.792;151.032;2023-08-01T04:07:50;101905.58;;;19.21;33.81
81162;BME280;70638;-33.792;151.032;2023-08-01T04:10:20;101904.60;;;19.26;33.64
81162;BME280;70638;-33.792;151.032;2023-08-01T04:12:50;101911.88;;;19.53;33.08
81162;BME280;70638;-33.792;151.032;2023-08-01T04:15:20;101910.43;;;19.17;33.14
81162;BME280;70638;-33.792;151.032;2023-08-01T04:17:50;101910.25;;;19.19;34.43
81162;BME280;70638;-33.792;151.032;2023-08-01T04:20:20;101911.83;;;19.01;33.72
81162;BME280;70638;-33.792;151.032;2023-08-01T04:22:51;101912.67;;;19.20;33.85
81162;BME280;70638;-33.792;151.032;2023-08-01T04:25:21;101910.23;;;19.47;33.70
81162;BME280;70638;-33.792;151.032;2023-08-01T04:27:51;101908.70;;;19.36;33.21
81162;BME280;70638;-33.792;151.032;2023-08-01T04:30:26;101907.27;;;19.30;34.31
81162;BME280;70638;-33.792;151.032;2023-08-01T04:32:52;101908.22;;;19.27;34.17
81162;BME280;70638;-33.792;151.032;2023-08-01T04:35:23;101904.98;;;19.41;34.02
81162;BME280;70638;-33.792;151.032;2023-08-01T04:37:53;101910.17;;;19.39;33.72
81162;BME280;70638;-33.792;151.032;2023-08-01T04:40:23;101912.59;;;19.45;32.88
81162;BME280;70638;-33.792;151.032;2023-08-01T04:42:54;101918.52;;;19.29;32.55
81162;BME280;70638;-33.792;151.032;2023-08-01T04:45:24;101915.03;;;19.29;32.96
81162;BME280;70638;-33.792;151.032;2023-08-01T04:47:54;101917.30;;;19.23;32.95
81162;BME280;70638;-33.792;151.032;2023-08-01T04:50:24;101917.30;;;19.05;33.34
81162;BME280;70638;-33.792;151.032;2023-08-01T04:52:55;101920.53;;;18.94;33.83
81162;BME280;70638;-33.792;151.032;2023-08-01T04:55:25;101919.31;;;18.84;35.37
81162;BME280;70638;-33.792;151.032;2023-08-01T04:57:56;101924.69;;;18.69;34.75
81162;BME280;70638;-33.792;151.032;2023-08-01T05:00:26;101921.16;;;18.68;35.21
81162;BME280;70638;-33.792;151.032;2023-08-01T05:02:56;101930.28;;;18.58;34.41
81162;BME280;70638;-33.792;151.032;2023-08-01T05:05:26;101930.82;;;18.69;34.41
81162;BME280;70638;-33.792;151.032;2023-08-01T05:07:57;101926.45;;;18.88;33.61
81162;BME280;70638;-33.792;151.032;2023-08-01T05:10:27;101930.94;;;18.86;35.81
81162;BME280;70638;-33.792;151.032;2023-08-01T05:15:27;101926.05;;;18.82;33.35
81162;BME280;70638;-33.792;151.032;2023-08-01T05:17:58;101929.41;;;18.72;33.75
81162;BME280;70638;-33.792;151.032;2023-08-01T05:20:33;101928.85;;;18.55;34.01
81162;BME280;70638;-33.792;151.032;2023-08-01T05:22:58;101932.08;;;18.25;36.16
81162;BME280;70638;-33.792;151.032;2023-08-01T05:25:29;101930.77;;;18.23;34.76
81162;BME280;70638;-33.792;151.032;2023-08-01T05:27:59;101932.13;;;18.22;35.05
81162;BME280;70638;-33.792;151.032;2023-08-01T05:30:29;101935.66;;;18.38;35.16
81162;BME280;70638;-33.792;151.032;2023-08-01T05:32:59;101935.55;;;18.50;34.18
81162;BME280;70638;-33.792;151.032;2023-08-01T05:35:34;101937.95;;;18.68;33.80
81162;BME280;70638;-33.792;151.032;2023-08-01T05:38:00;101936.53;;;18.76;33.77
81162;BME280;70638;-33.792;151.032;2023-08-01T05:40:30;101936.89;;;18.86;34.22
81162;BME280;70638;-33.792;151.032;2023-08-01T05:43:00;101939.69;;;18.83;33.58
81162;BME280;70638;-33.792;151.032;2023-08-01T05:45:31;101939.91;;;18.60;36.20
81162;BME280;70638;-33.792;151.032;2023-08-01T05:48:01;101943.84;;;18.47;36.05
81162;BME280;70638;-33.792;151.032;2023-08-01T05:50:31;101943.84;;;18.46;36.37
81162;BME280;70638;-33.792;151.032;2023-08-01T05:53:01;101949.59;;;18.35;36.93
81162;BME280;70638;-33.792;151.032;2023-08-01T05:55:37;101951.47;;;18.43;37.47
81162;BME280;70638;-33.792;151.032;2023-08-01T05:58:02;101955.09;;;18.32;37.69
81162;BME280;70638;-33.792;151.032;2023-08-01T06:00:33;101955.46;;;18.35;37.94
81162;BME280;70638;-33.792;151.032;2023-08-01T06:03:04;101960.42;;;18.12;38.48
81162;BME280;70638;-33.792;151.032;2023-08-01T06:05:34;101960.77;;;18.12;38.33
81162;BME280;70638;-33.792;151.032;2023-08-01T06:08:05;101963.77;;;18.00;38.14
81162;BME280;70638;-33.792;151.032;2023-08-01T06:10:35;101965.84;;;18.02;38.33
81162;BME280;70638;-33.792;151.032;2023-08-01T06:13:05;101970.12;;;17.86;38.67
81162;BME280;70638;-33.792;151.032;2023-08-01T06:15:35;101969.82;;;17.94;38.12
81162;BME280;70638;-33.792;151.032;2023-08-01T06:18:05;101978.02;;;17.59;40.05
81162;BME280;70638;-33.792;151.032;2023-08-01T06:20:36;101986.36;;;17.60;38.59
81162;BME280;70638;-33.792;151.032;2023-08-01T06:23:06;101980.41;;;17.71;37.97
81162;BME280;70638;-33.792;151.032;2023-08-01T06:25:36;101988.73;;;17.49;38.50
81162;BME280;70638;-33.792;151.032;2023-08-01T06:28:06;101989.55;;;17.52;38.62
81162;BME280;70638;-33.792;151.032;2023-08-01T06:30:36;101986.72;;;17.30;39.10
81162;BME280;70638;-33.792;151.032;2023-08-01T06:33:06;101986.45;;;17.20;38.85
81162;BME280;70638;-33.792;151.032;2023-08-01T06:35:36;101993.05;;;17.05;39.80
81162;BME280;70638;-33.792;151.032;2023-08-01T06:38:11;101994.11;;;16.89;40.64
81162;BME280;70638;-33.792;151.032;2023-08-01T06:40:37;101997.91;;;16.59;42.73
81162;BME280;70638;-33.792;151.032;2023-08-01T06:43:07;102000.39;;;16.64;40.02
81162;BME280;70638;-33.792;151.032;2023-08-01T06:45:37;101996.62;;;16.58;40.67
81162;BME280;70638;-33.792;151.032;2023-08-01T06:48:08;102000.52;;;16.58;41.10
81162;BME280;70638;-33.792;151.032;2023-08-01T06:50:38;102010.47;;;16.34;42.66
81162;BME280;70638;-33.792;151.032;2023-08-01T06:53:08;102014.30;;;16.68;40.04
81162;BME280;70638;-33.792;151.032;2023-08-01T06:55:38;102019.19;;;16.61;40.64
81162;BME280;70638;-33.792;151.032;2023-08-01T06:58:12;102020.25;;;16.72;39.36
81162;BME280;70638;-33.792;151.032;2023-08-01T07:00:39;102026.77;;;16.58;39.88
81162;BME280;70638;-33.792;151.032;2023-08-01T07:03:10;102035.12;;;16.40;41.25
81162;BME280;70638;-33.792;151.032;2023-08-01T07:05:40;102040.02;;;16.16;41.51
81162;BME280;70638;-33.792;151.032;2023-08-01T07:08:10;102042.78;;;16.00;41.93
81162;BME280;70638;-33.792;151.032;2023-08-01T07:10:40;102045.13;;;15.81;42.94
81162;BME280;70638;-33.792;151.032;2023-08-01T07:13:11;102048.14;;;15.44;45.57
81162;BME280;70638;-33.792;151.032;2023-08-01T07:15:41;102058.23;;;15.09;45.93
81162;BME280;70638;-33.792;151.032;2023-08-01T07:18:11;102060.94;;;14.82;47.02
81162;BME280;70638;-33.792;151.032;2023-08-01T07:20:48;102057.36;;;14.55;48.36
81162;BME280;70638;-33.792;151.032;2023-08-01T07:23:12;102063.78;;;14.42;48.53
81162;BME280;70638;-33.792;151.032;2023-08-01T07:25:42;102065.48;;;14.28;48.79
81162;BME280;70638;-33.792;151.032;2023-08-01T07:28:12;102079.78;;;14.11;49.77
81162;BME280;70638;-33.792;151.032;2023-08-01T07:30:42;102082.24;;;14.07;49.11
81162;BME280;70638;-33.792;151.032;2023-08-01T07:33:12;102086.14;;;13.89;50.60
81162;BME280;70638;-33.792;151.032;2023-08-01T07:35:42;102086.52;;;13.73;51.60
81162;BME280;70638;-33.792;151.032;2023-08-01T07:38:13;102088.58;;;13.53;52.20
81162;BME280;70638;-33.792;151.032;2023-08-01T07:40:43;102096.47;;;13.35;52.65
81162;BME280;70638;-33.792;151.032;2023-08-01T07:43:26;102102.64;;;13.22;53.56
81162;BME280;70638;-33.792;151.032;2023-08-01T07:45:43;102106.03;;;13.08;54.01
81162;BME280;70638;-33.792;151.032;2023-08-01T07:48:13;102104.97;;;12.88;55.35
81162;BME280;70638;-33.792;151.032;2023-08-01T07:50:44;102116.31;;;12.76;55.57
81162;BME280;70638;-33.792;151.032;2023-08-01T07:53:14;102117.63;;;12.62;56.28
81162;BME280;70638;-33.792;151.032;2023-08-01T07:55:44;102127.28;;;12.52;56.82
81162;BME280;70638;-33.792;151.032;2023-08-01T07:58:14;102126.72;;;12.42;57.50
81162;BME280;70638;-33.792;151.032;2023-08-01T08:00:44;102125.18;;;12.33;58.03
81162;BME280;70638;-33.792;151.032;2023-08-01T08:03:20;102130.92;;;12.21;58.37
81162;BME280;70638;-33.792;151.032;2023-08-01T08:05:44;102138.52;;;12.11;58.72
81162;BME280;70638;-33.792;151.032;2023-08-01T08:08:14;102141.48;;;12.00;59.59
81162;BME280;70638;-33.792;151.032;2023-08-01T08:10:45;102145.33;;;11.98;59.80
81162;BME280;70638;-33.792;151.032;2023-08-01T08:13:15;102151.86;;;11.97;59.93
81162;BME280;70638;-33.792;151.032;2023-08-01T08:15:45;102159.56;;;11.92;60.63
81162;BME280;70638;-33.792;151.032;2023-08-01T08:18:15;102162.45;;;11.86;60.78
81162;BME280;70638;-33.792;151.032;2023-08-01T08:20:46;102168.52;;;11.85;61.59
81162;BME280;70638;-33.792;151.032;2023-08-01T08:23:19;102178.77;;;11.74;62.31
81162;BME280;70638;-33.792;151.032;2023-08-01T08:25:53;102176.06;;;11.64;62.92
81162;BME280;70638;-33.792;151.032;2023-08-01T08:28:28;102181.11;;;11.63;63.03
81162;BME280;70638;-33.792;151.032;2023-08-01T08:30:49;102182.27;;;11.57;63.39
81162;BME280;70638;-33.792;151.032;2023-08-01T08:33:21;102191.23;;;11.58;64.07
81162;BME280;70638;-33.792;151.032;2023-08-01T08:35:49;102195.33;;;11.58;64.29
81162;BME280;70638;-33.792;151.032;2023-08-01T08:38:19;102194.88;;;11.53;64.78
81162;BME280;70638;-33.792;151.032;2023-08-01T08:41:09;102197.48;;;11.47;65.12
81162;BME280;70638;-33.792;151.032;2023-08-01T08:43:20;102197.14;;;11.38;65.72
81162;BME280;70638;-33.792;151.032;2023-08-01T08:45:52;102204.05;;;11.33;66.77
81162;BME280;70638;-33.792;151.032;2023-08-01T08:48:21;102205.73;;;11.34;66.76
81162;BME280;70638;-33.792;151.032;2023-08-01T08:50:52;102210.80;;;11.31;67.31
81162;BME280;70638;-33.792;151.032;2023-08-01T08:53:24;102216.41;;;11.28;68.12
81162;BME280;70638;-33.792;151.032;2023-08-01T08:55:52;102218.84;;;11.32;68.54
81162;BME280;70638;-33.792;151.032;2023-08-01T08:58:22;102228.20;;;11.34;70.35
81162;BME280;70638;-33.792;151.032;2023-08-01T09:00:53;102231.51;;;11.47;68.89
81162;BME280;70638;-33.792;151.032;2023-08-01T09:03:24;102229.30;;;11.44;69.46
81162;BME280;70638;-33.792;151.032;2023-08-01T09:06:05;102233.21;;;11.41;70.13
81162;BME280;70638;-33.792;151.032;2023-08-01T09:08:28;102236.10;;;11.36;70.83
81162;BME280;70638;-33.792;151.032;2023-08-01T09:10:54;102240.44;;;11.31;70.93
81162;BME280;70638;-33.792;151.032;2023-08-01T09:13:24;102246.66;;;11.27;71.66
81162;BME280;70638;-33.792;151.032;2023-08-01T09:15:54;102246.19;;;11.26;71.89
81162;BME280;70638;-33.792;151.032;2023-08-01T09:18:25;102254.88;;;11.21;72.19
81162;BME280;70638;-33.792;151.032;2023-08-01T09:20:55;102256.42;;;11.14;72.36
81162;BME280;70638;-33.792;151.032;2023-08-01T09:23:25;102264.38;;;11.08;72.75
81162;BME280;70638;-33.792;151.032;2023-08-01T09:25:56;102273.27;;;11.02;73.53
81162;BME280;70638;-33.792;151.032;2023-08-01T09:28:26;102275.52;;;10.98;73.56
81162;BME280;70638;-33.792;151.032;2023-08-01T09:31:00;102282.22;;;10.92;74.48
81162;BME280;70638;-33.792;151.032;2023-08-01T09:33:36;102287.77;;;10.87;73.97
81162;BME280;70638;-33.792;151.032;2023-08-01T09:35:57;102293.54;;;10.84;74.42
81162;BME280;70638;-33.792;151.032;2023-08-01T09:38:34;102291.59;;;10.84;75.09
81162;BME280;70638;-33.792;151.032;2023-08-01T09:40:57;102295.69;;;10.77;75.65
81162;BME280;70638;-33.792;151.032;2023-08-01T09:43:35;102299.88;;;10.71;75.86
81162;BME280;70638;-33.792;151.032;2023-08-01T09:45:58;102304.50;;;10.67;75.42
81162;BME280;70638;-33.792;151.032;2023-08-01T09:48:35;102303.42;;;10.64;75.69
81162;BME280;70638;-33.792;151.032;2023-08-01T09:51:11;102313.02;;;10.63;75.37
81162;BME280;70638;-33.792;151.032;2023-08-01T09:53:30;102316.23;;;10.60;76.32
81162;BME280;70638;-33.792;151.032;2023-08-01T09:56:03;102320.06;;;10.57;76.54
81162;BME280;70638;-33.792;151.032;2023-08-01T09:58:32;102325.00;;;10.62;76.76
81162;BME280;70638;-33.792;151.032;2023-08-01T10:01:01;102332.36;;;10.59;76.94
81162;BME280;70638;-33.792;151.032;2023-08-01T10:03:31;102335.19;;;10.56;76.99
81162;BME280;70638;-33.792;151.032;2023-08-01T10:06:02;102340.81;;;10.52;76.71
81162;BME280;70638;-33.792;151.032;2023-08-01T10:08:40;102340.45;;;10.50;77.72
81162;BME280;70638;-33.792;151.032;2023-08-01T10:11:04;102346.10;;;10.50;77.52
81162;BME280;70638;-33.792;151.032;2023-08-01T10:13:33;102346.83;;;10.51;78.46
81162;BME280;70638;-33.792;151.032;2023-08-01T10:16:03;102348.27;;;10.46;77.90
81162;BME280;70638;-33.792;151.032;2023-08-01T10:18:33;102358.45;;;10.38;78.00
81162;BME280;70638;-33.792;151.032;2023-08-01T10:21:04;102363.05;;;10.32;78.13
81162;BME280;70638;-33.792;151.032;2023-08-01T10:23:35;102370.03;;;10.26;78.54
81162;BME280;70638;-33.792;151.032;2023-08-01T10:26:06;102375.16;;;10.27;79.46
81162;BME280;70638;-33.792;151.032;2023-08-01T10:31:15;102385.16;;;10.19;79.80
81162;BME280;70638;-33.792;151.032;2023-08-01T10:33:37;102385.53;;;10.12;79.16
81162;BME280;70638;-33.792;151.032;2023-08-01T10:36:13;102386.38;;;10.07;80.42
81162;BME280;70638;-33.792;151.032;2023-08-01T10:38:48;102389.42;;;10.02;79.92
81162;BME280;70638;-33.792;151.032;2023-08-01T10:43:37;102392.99;;;9.91;80.19
81162;BME280;70638;-33.792;151.032;2023-08-01T10:46:08;102394.56;;;9.90;80.51
81162;BME280;70638;-33.792;151.032;2023-08-01T10:48:49;102400.90;;;9.89;80.70
81162;BME280;70638;-33.792;151.032;2023-08-01T10:51:08;102408.28;;;9.85;81.15
81162;BME280;70638;-33.792;151.032;2023-08-01T10:53:39;102413.61;;;9.78;81.42
81162;BME280;70638;-33.792;151.032;2023-08-01T10:56:14;102417.34;;;9.81;82.54
81162;BME280;70638;-33.792;151.032;2023-08-01T10:58:39;102422.92;;;9.75;81.83
81162;BME280;70638;-33.792;151.032;2023-08-01T11:01:10;102422.95;;;9.69;82.32
81162;BME280;70638;-33.792;151.032;2023-08-01T11:03:40;102426.96;;;9.64;82.58
81162;BME280;70638;-33.792;151.032;2023-08-01T11:06:10;102431.55;;;9.60;83.06
81162;BME280;70638;-33.792;151.032;2023-08-01T11:08:41;102434.06;;;9.56;81.98
81162;BME280;70638;-33.792;151.032;2023-08-01T11:11:12;102435.98;;;9.49;82.94
81162;BME280;70638;-33.792;151.032;2023-08-01T11:13:41;102441.02;;;9.45;83.14
81162;BME280;70638;-33.792;151.032;2023-08-01T11:16:12;102445.84;;;9.50;82.72
81162;BME280;70638;-33.792;151.032;2023-08-01T11:18:43;102448.61;;;9.57;81.73
81162;BME280;70638;-33.792;151.032;2023-08-01T11:21:26;102455.93;;;9.55;81.52
81162;BME280;70638;-33.792;151.032;2023-08-01T11:23:44;102459.94;;;9.59;81.96
81162;BME280;70638;-33.792;151.032;2023-08-01T11:26:14;102463.23;;;9.57;81.51
81162;BME280;70638;-33.792;151.032;2023-08-01T11:28:44;102468.15;;;9.63;81.23
81162;BME280;70638;-33.792;151.032;2023-08-01T11:31:20;102468.12;;;9.64;81.27
81162;BME280;70638;-33.792;151.032;2023-08-01T11:33:55;102465.61;;;9.65;81.16
81162;BME280;70638;-33.792;151.032;2023-08-01T11:36:15;102466.75;;;9.60;80.48
81162;BME280;70638;-33.792;151.032;2023-08-01T11:38:45;102477.52;;;9.54;80.47
81162;BME280;70638;-33.792;151.032;2023-08-01T11:41:16;102476.54;;;9.52;80.95
81162;BME280;70638;-33.792;151.032;2023-08-01T11:43:46;102482.28;;;9.41;80.97
81162;BME280;70638;-33.792;151.032;2023-08-01T11:46:16;102485.27;;;9.32;81.88
81162;BME280;70638;-33.792;151.032;2023-08-01T11:48:47;102487.68;;;9.22;81.98
81162;BME280;70638;-33.792;151.032;2023-08-01T11:51:21;102488.96;;;9.14;82.14
81162;BME280;70638;-33.792;151.032;2023-08-01T11:54:01;102487.06;;;9.14;81.94
81162;BME280;70638;-33.792;151.032;2023-08-01T11:56:22;102494.25;;;9.17;81.56
81162;BME280;70638;-33.792;151.032;2023-08-01T11:58:49;102498.50;;;9.24;81.80
81162;BME280;70638;-33.792;151.032;2023-08-01T12:01:20;102498.91;;;9.24;81.53
81162;BME280;70638;-33.792;151.032;2023-08-01T12:03:51;102496.55;;;9.21;81.53
81162;BME280;70638;-33.792;151.032;2023-08-01T12:06:22;102500.56;;;9.14;81.86
81162;BME280;70638;-33.792;151.032;2023-08-01T12:08:54;102506.57;;;9.10;82.38
81162;BME280;70638;-33.792;151.032;2023-08-01T12:11:36;102516.42;;;9.08;82.36
81162;BME280;70638;-33.792;151.032;2023-08-01T12:14:08;102520.11;;;9.02;83.29
81162;BME280;70638;-33.792;151.032;2023-08-01T12:16:23;102517.33;;;8.93;82.72
81162;BME280;70638;-33.792;151.032;2023-08-01T12:18:53;102519.52;;;8.87;83.28
81162;BME280;70638;-33.792;151.032;2023-08-01T12:21:24;102523.45;;;8.85;83.63
81162;BME280;70638;-33.792;151.032;2023-08-01T12:23:54;102524.68;;;8.78;83.31
81162;BME280;70638;-33.792;151.032;2023-08-01T12:26:24;102526.95;;;8.72;83.56
81162;BME280;70638;-33.792;151.032;2023-08-01T12:28:55;102526.41;;;8.69;83.81
81162;BME280;70638;-33.792;151.032;2023-08-01T12:31:31;102524.09;;;8.79;83.34
81162;BME280;70638;-33.792;151.032;2023-08-01T12:33:56;102524.96;;;8.85;82.82
81162;BME280;70638;-33.792;151.032;2023-08-01T12:36:27;102525.16;;;8.73;83.07
81162;BME280;70638;-33.792;151.032;2023-08-01T12:38:57;102523.59;;;8.77;83.88
81162;BME280;70638;-33.792;151.032;2023-08-01T12:41:27;102525.20;;;8.71;83.75
81162;BME280;70638;-33.792;151.032;2023-08-01T12:43:58;102537.84;;;8.71;84.38
81162;BME280;70638;-33.792;151.032;2023-08-01T12:46:28;102545.26;;;8.67;84.05